San Angelo's Hourly Summary for Wednesday, May 9, 2018
Hour Temp
(f)
RH
(%)
Solar Rad.
(MJ/m2)
Rainfall
(in)
Wind
(mph)
5/9/2018 12:00 AM 77 35 0 0 6.41
5/9/2018 1:00 AM 76 38 0 0 5.01
5/9/2018 2:00 AM 75 38 0 0 9.37
5/9/2018 3:00 AM 73 42 0 0 12.47
5/9/2018 4:00 AM 71 47 0 0 13.01
5/9/2018 5:00 AM 69 52 0 0 10.52
5/9/2018 6:00 AM 68 56 0 0 8.48
5/9/2018 7:00 AM 67 60 0 0 7.4
5/9/2018 8:00 AM 66 64 0.33 0 8.15
5/9/2018 9:00 AM 69 60 1.04 0 9.11
5/9/2018 10:00 AM 72 46 1.75 0 10.87
5/9/2018 11:00 AM 77 37 2.4 0 12.92
5/9/2018 12:00 PM 81 28 2.77 0 10.38
5/9/2018 1:00 PM 84 24 3.23 0 9.79
5/9/2018 2:00 PM 87 22 3.35 0 10.66
5/9/2018 3:00 PM 89 20 3.24 0 11.09
5/9/2018 4:00 PM 90 18 2.94 0 11.78
5/9/2018 5:00 PM 91 18 2.46 0 12.79
5/9/2018 6:00 PM 91 18 1.82 0 12.73
5/9/2018 7:00 PM 90 18 1.1 0 13
5/9/2018 8:00 PM 88 23 0.43 0 12.27
5/9/2018 9:00 PM 85 26 0.03 0 10.42
5/9/2018 10:00 PM 82 31 0 0 9.26
5/9/2018 11:00 PM 78 38 0 0 8.32
Data Summary 79 35 26.89 0.00 10.26